sensor_id;sensor_type;location;lat;lon;timestamp;temperature;humidity
51719;DHT22;37795;53.236;5.704;2024-03-02T00:00:02;14.60;70.70
51719;DHT22;37795;53.236;5.704;2024-03-02T00:02:43;14.60;70.70
51719;DHT22;37795;53.236;5.704;2024-03-02T00:05:14;14.50;70.70
51719;DHT22;37795;53.236;5.704;2024-03-02T00:07:42;14.50;70.60
51719;DHT22;37795;53.236;5.704;2024-03-02T00:10:09;14.50;70.70
51719;DHT22;37795;53.236;5.704;2024-03-02T00:12:39;14.50;70.70
51719;DHT22;37795;53.236;5.704;2024-03-02T00:17:53;14.50;70.70
51719;DHT22;37795;53.236;5.704;2024-03-02T00:20:21;14.50;70.60
51719;DHT22;37795;53.236;5.704;2024-03-02T00:22:48;14.50;70.60
51719;DHT22;37795;53.236;5.704;2024-03-02T00:25:13;14.50;70.60
51719;DHT22;37795;53.236;5.704;2024-03-02T00:27:39;14.50;70.60
51719;DHT22;37795;53.236;5.704;2024-03-02T00:33:10;14.40;70.60
51719;DHT22;37795;53.236;5.704;2024-03-02T00:35:36;14.40;70.60
51719;DHT22;37795;53.236;5.704;2024-03-02T00:38:06;14.40;70.60
51719;DHT22;37795;53.236;5.704;2024-03-02T00:40:32;14.40;70.60
51719;DHT22;37795;53.236;5.704;2024-03-02T00:42:58;14.40;70.60
51719;DHT22;37795;53.236;5.704;2024-03-02T00:45:25;14.40;70.50
51719;DHT22;37795;53.236;5.704;2024-03-02T00:47:51;14.40;70.60
51719;DHT22;37795;53.236;5.704;2024-03-02T00:50:17;14.40;70.50
51719;DHT22;37795;53.236;5.704;2024-03-02T00:52:43;14.40;70.50
51719;DHT22;37795;53.236;5.704;2024-03-02T00:55:09;14.40;70.50
51719;DHT22;37795;53.236;5.704;2024-03-02T00:57:35;14.30;70.50
51719;DHT22;37795;53.236;5.704;2024-03-02T01:00:01;14.40;70.50
51719;DHT22;37795;53.236;5.704;2024-03-02T01:02:28;14.30;70.50
51719;DHT22;37795;53.236;5.704;2024-03-02T01:04:54;14.40;70.50
51719;DHT22;37795;53.236;5.704;2024-03-02T01:07:20;14.30;70.50
51719;DHT22;37795;53.236;5.704;2024-03-02T01:09:46;14.30;70.50
51719;DHT22;37795;53.236;5.704;2024-03-02T01:12:11;14.30;70.50
51719;DHT22;37795;53.236;5.704;2024-03-02T01:14:37;14.30;70.50
51719;DHT22;37795;53.236;5.704;2024-03-02T01:17:03;14.30;70.50
51719;DHT22;37795;53.236;5.704;2024-03-02T01:19:30;14.30;70.50
51719;DHT22;37795;53.236;5.704;2024-03-02T01:21:56;14.30;70.50
51719;DHT22;37795;53.236;5.704;2024-03-02T01:24:22;14.30;70.50
51719;DHT22;37795;53.236;5.704;2024-03-02T01:26:47;14.30;70.50
51719;DHT22;37795;53.236;5.704;2024-03-02T01:29:13;14.30;70.50
51719;DHT22;37795;53.236;5.704;2024-03-02T01:31:39;14.20;70.50
51719;DHT22;37795;53.236;5.704;2024-03-02T01:34:07;14.20;70.50
51719;DHT22;37795;53.236;5.704;2024-03-02T01:36:33;14.20;70.50
51719;DHT22;37795;53.236;5.704;2024-03-02T01:38:59;14.20;70.50
51719;DHT22;37795;53.236;5.704;2024-03-02T01:41:26;14.20;70.50
51719;DHT22;37795;53.236;5.704;2024-03-02T01:43:51;14.20;70.50
51719;DHT22;37795;53.236;5.704;2024-03-02T01:46:17;14.20;70.50
51719;DHT22;37795;53.236;5.704;2024-03-02T01:48:43;14.20;70.50
51719;DHT22;37795;53.236;5.704;2024-03-02T01:51:08;14.20;70.50
51719;DHT22;37795;53.236;5.704;2024-03-02T01:53:35;14.20;70.50
51719;DHT22;37795;53.236;5.704;2024-03-02T01:56:02;14.20;70.50
51719;DHT22;37795;53.236;5.704;2024-03-02T01:58:27;14.20;70.40
51719;DHT22;37795;53.236;5.704;2024-03-02T02:00:53;14.10;70.40
51719;DHT22;37795;53.236;5.704;2024-03-02T02:03:19;14.10;70.50
51719;DHT22;37795;53.236;5.704;2024-03-02T02:05:45;14.10;70.50
51719;DHT22;37795;53.236;5.704;2024-03-02T02:08:12;14.10;70.40
51719;DHT22;37795;53.236;5.704;2024-03-02T02:10:38;14.10;70.40
51719;DHT22;37795;53.236;5.704;2024-03-02T02:13:04;14.10;70.50
51719;DHT22;37795;53.236;5.704;2024-03-02T02:15:30;14.10;70.50
51719;DHT22;37795;53.236;5.704;2024-03-02T02:17:57;14.10;70.50
51719;DHT22;37795;53.236;5.704;2024-03-02T02:20:23;14.10;70.40
51719;DHT22;37795;53.236;5.704;2024-03-02T02:22:57;14.10;70.50
51719;DHT22;37795;53.236;5.704;2024-03-02T02:25:23;14.10;70.50
51719;DHT22;37795;53.236;5.704;2024-03-02T02:27:49;14.10;70.50
51719;DHT22;37795;53.236;5.704;2024-03-02T02:30:19;14.10;70.50
51719;DHT22;37795;53.236;5.704;2024-03-02T02:32:45;14.10;70.50
51719;DHT22;37795;53.236;5.704;2024-03-02T02:35:11;14.20;70.40
51719;DHT22;37795;53.236;5.704;2024-03-02T02:37:37;14.20;70.40
51719;DHT22;37795;53.236;5.704;2024-03-02T02:40:02;14.20;70.40
51719;DHT22;37795;53.236;5.704;2024-03-02T02:42:30;14.20;70.40
51719;DHT22;37795;53.236;5.704;2024-03-02T02:44:56;14.20;70.50
51719;DHT22;37795;53.236;5.704;2024-03-02T02:47:21;14.30;70.60
51719;DHT22;37795;53.236;5.704;2024-03-02T02:49:47;14.40;70.70
51719;DHT22;37795;53.236;5.704;2024-03-02T02:52:13;14.50;70.80
51719;DHT22;37795;53.236;5.704;2024-03-02T02:54:38;14.60;70.70
51719;DHT22;37795;53.236;5.704;2024-03-02T02:57:04;14.60;70.50
51719;DHT22;37795;53.236;5.704;2024-03-02T02:59:30;14.60;70.20
51719;DHT22;37795;53.236;5.704;2024-03-02T03:01:55;14.60;70.10
51719;DHT22;37795;53.236;5.704;2024-03-02T03:04:21;14.60;70.00
51719;DHT22;37795;53.236;5.704;2024-03-02T03:06:47;14.60;70.00
51719;DHT22;37795;53.236;5.704;2024-03-02T03:09:12;14.60;70.00
51719;DHT22;37795;53.236;5.704;2024-03-02T03:11:38;14.60;70.00
51719;DHT22;37795;53.236;5.704;2024-03-02T03:14:04;14.60;70.00
51719;DHT22;37795;53.236;5.704;2024-03-02T03:16:30;14.60;70.00
51719;DHT22;37795;53.236;5.704;2024-03-02T03:18:56;14.60;70.00
51719;DHT22;37795;53.236;5.704;2024-03-02T03:21:21;14.60;70.00
51719;DHT22;37795;53.236;5.704;2024-03-02T03:23:47;14.60;70.00
51719;DHT22;37795;53.236;5.704;2024-03-02T03:26:13;14.60;70.00
51719;DHT22;37795;53.236;5.704;2024-03-02T03:28:38;14.60;70.00
51719;DHT22;37795;53.236;5.704;2024-03-02T03:31:04;14.60;70.00
51719;DHT22;37795;53.236;5.704;2024-03-02T03:33:30;14.60;70.00
51719;DHT22;37795;53.236;5.704;2024-03-02T03:35:55;14.60;70.00
51719;DHT22;37795;53.236;5.704;2024-03-02T03:38:21;14.60;70.00
51719;DHT22;37795;53.236;5.704;2024-03-02T03:40:47;14.60;70.00
51719;DHT22;37795;53.236;5.704;2024-03-02T03:43:13;14.60;70.00
51719;DHT22;37795;53.236;5.704;2024-03-02T03:45:39;14.60;70.00
51719;DHT22;37795;53.236;5.704;2024-03-02T03:48:04;14.50;70.00
51719;DHT22;37795;53.236;5.704;2024-03-02T03:50:30;14.50;70.00
51719;DHT22;37795;53.236;5.704;2024-03-02T03:52:56;14.50;70.00
51719;DHT22;37795;53.236;5.704;2024-03-02T03:55:22;14.50;70.00
51719;DHT22;37795;53.236;5.704;2024-03-02T03:57:47;14.50;69.90
51719;DHT22;37795;53.236;5.704;2024-03-02T04:00:13;14.50;69.90
51719;DHT22;37795;53.236;5.704;2024-03-02T04:02:39;14.50;69.90
51719;DHT22;37795;53.236;5.704;2024-03-02T04:05:05;14.50;69.80
51719;DHT22;37795;53.236;5.704;2024-03-02T04:07:35;14.50;69.80
51719;DHT22;37795;53.236;5.704;2024-03-02T04:10:07;14.50;69.80
51719;DHT22;37795;53.236;5.704;2024-03-02T04:12:34;14.40;69.80
51719;DHT22;37795;53.236;5.704;2024-03-02T04:15:01;14.40;69.80
51719;DHT22;37795;53.236;5.704;2024-03-02T04:17:27;14.40;69.80
51719;DHT22;37795;53.236;5.704;2024-03-02T04:19:53;14.40;69.80
51719;DHT22;37795;53.236;5.704;2024-03-02T04:22:18;14.40;69.90
51719;DHT22;37795;53.236;5.704;2024-03-02T04:24:44;14.40;69.80
51719;DHT22;37795;53.236;5.704;2024-03-02T04:27:10;14.40;69.80
51719;DHT22;37795;53.236;5.704;2024-03-02T04:29:35;14.40;69.80
51719;DHT22;37795;53.236;5.704;2024-03-02T04:32:01;14.30;69.80
51719;DHT22;37795;53.236;5.704;2024-03-02T04:34:26;14.30;69.80
51719;DHT22;37795;53.236;5.704;2024-03-02T04:36:52;14.30;69.80
51719;DHT22;37795;53.236;5.704;2024-03-02T04:39:18;14.30;69.90
51719;DHT22;37795;53.236;5.704;2024-03-02T04:41:44;14.30;69.80
51719;DHT22;37795;53.236;5.704;2024-03-02T04:44:09;14.30;69.90
51719;DHT22;37795;53.236;5.704;2024-03-02T04:46:35;14.30;69.80
51719;DHT22;37795;53.236;5.704;2024-03-02T04:49:01;14.30;69.90
51719;DHT22;37795;53.236;5.704;2024-03-02T04:51:26;14.30;69.90
51719;DHT22;37795;53.236;5.704;2024-03-02T04:53:52;14.30;69.90
51719;DHT22;37795;53.236;5.704;2024-03-02T04:56:17;14.20;69.90
51719;DHT22;37795;53.236;5.704;2024-03-02T04:59:02;14.20;69.80
51719;DHT22;37795;53.236;5.704;2024-03-02T05:01:27;14.20;69.90
51719;DHT22;37795;53.236;5.704;2024-03-02T05:03:53;14.20;69.90
51719;DHT22;37795;53.236;5.704;2024-03-02T05:06:19;14.20;69.90
51719;DHT22;37795;53.236;5.704;2024-03-02T05:08:44;14.20;69.90
51719;DHT22;37795;53.236;5.704;2024-03-02T05:11:10;14.20;69.90
51719;DHT22;37795;53.236;5.704;2024-03-02T05:14:05;14.20;69.90
51719;DHT22;37795;53.236;5.704;2024-03-02T05:16:35;14.20;69.90
51719;DHT22;37795;53.236;5.704;2024-03-02T05:19:01;14.10;69.90
51719;DHT22;37795;53.236;5.704;2024-03-02T05:21:26;14.10;70.00
51719;DHT22;37795;53.236;5.704;2024-03-02T05:23:52;14.10;69.90
51719;DHT22;37795;53.236;5.704;2024-03-02T05:26:18;14.10;69.90
51719;DHT22;37795;53.236;5.704;2024-03-02T05:28:43;14.10;69.90
51719;DHT22;37795;53.236;5.704;2024-03-02T05:31:15;14.10;69.90
51719;DHT22;37795;53.236;5.704;2024-03-02T05:33:41;14.10;70.00
51719;DHT22;37795;53.236;5.704;2024-03-02T05:36:06;14.00;69.90
51719;DHT22;37795;53.236;5.704;2024-03-02T05:38:34;14.10;70.00
51719;DHT22;37795;53.236;5.704;2024-03-02T05:41:00;14.00;70.00
51719;DHT22;37795;53.236;5.704;2024-03-02T05:43:26;14.00;70.00
51719;DHT22;37795;53.236;5.704;2024-03-02T05:45:51;14.00;70.00
51719;DHT22;37795;53.236;5.704;2024-03-02T05:48:17;14.00;70.00
51719;DHT22;37795;53.236;5.704;2024-03-02T05:50:43;14.00;70.10
51719;DHT22;37795;53.236;5.704;2024-03-02T05:53:08;14.10;70.10
51719;DHT22;37795;53.236;5.704;2024-03-02T05:55:34;14.10;70.10
51719;DHT22;37795;53.236;5.704;2024-03-02T05:58:00;14.20;70.10
51719;DHT22;37795;53.236;5.704;2024-03-02T06:00:32;14.20;70.10
51719;DHT22;37795;53.236;5.704;2024-03-02T06:02:57;14.30;70.00
51719;DHT22;37795;53.236;5.704;2024-03-02T06:05:23;14.30;69.90
51719;DHT22;37795;53.236;5.704;2024-03-02T06:07:50;14.40;69.80
51719;DHT22;37795;53.236;5.704;2024-03-02T06:10:16;14.40;69.70
51719;DHT22;37795;53.236;5.704;2024-03-02T06:12:42;14.50;69.50
51719;DHT22;37795;53.236;5.704;2024-03-02T06:15:09;14.50;69.50
51719;DHT22;37795;53.236;5.704;2024-03-02T06:17:37;14.50;69.30
51719;DHT22;37795;53.236;5.704;2024-03-02T06:20:03;14.60;69.20
51719;DHT22;37795;53.236;5.704;2024-03-02T06:22:29;14.60;69.20
51719;DHT22;37795;53.236;5.704;2024-03-02T06:24:55;14.70;69.20
51719;DHT22;37795;53.236;5.704;2024-03-02T06:27:21;14.70;69.20
51719;DHT22;37795;53.236;5.704;2024-03-02T06:29:46;14.80;69.30
51719;DHT22;37795;53.236;5.704;2024-03-02T06:32:12;14.90;69.40
51719;DHT22;37795;53.236;5.704;2024-03-02T06:34:38;15.10;69.30
51719;DHT22;37795;53.236;5.704;2024-03-02T06:37:03;15.10;68.90
51719;DHT22;37795;53.236;5.704;2024-03-02T06:39:29;15.10;68.70
51719;DHT22;37795;53.236;5.704;2024-03-02T06:41:56;15.10;68.60
51719;DHT22;37795;53.236;5.704;2024-03-02T06:51:21;14.80;68.60
51719;DHT22;37795;53.236;5.704;2024-03-02T06:53:47;14.80;69.00
51719;DHT22;37795;53.236;5.704;2024-03-02T06:56:13;14.90;69.10
51719;DHT22;37795;53.236;5.704;2024-03-02T06:58:38;14.90;69.10
51719;DHT22;37795;53.236;5.704;2024-03-02T07:01:04;14.90;69.20
51719;DHT22;37795;53.236;5.704;2024-03-02T07:03:30;14.80;69.20
51719;DHT22;37795;53.236;5.704;2024-03-02T07:05:56;14.90;69.20
51719;DHT22;37795;53.236;5.704;2024-03-02T07:08:22;14.90;69.20
51719;DHT22;37795;53.236;5.704;2024-03-02T07:10:48;14.90;69.30
51719;DHT22;37795;53.236;5.704;2024-03-02T07:13:14;14.90;69.30
51719;DHT22;37795;53.236;5.704;2024-03-02T07:15:40;14.90;69.30
51719;DHT22;37795;53.236;5.704;2024-03-02T07:18:25;14.90;69.30
51719;DHT22;37795;53.236;5.704;2024-03-02T07:20:50;14.90;69.30
51719;DHT22;37795;53.236;5.704;2024-03-02T07:23:16;14.90;69.30
51719;DHT22;37795;53.236;5.704;2024-03-02T07:25:42;14.90;69.30
51719;DHT22;37795;53.236;5.704;2024-03-02T07:28:07;14.90;69.20
51719;DHT22;37795;53.236;5.704;2024-03-02T07:30:33;15.00;69.20
51719;DHT22;37795;53.236;5.704;2024-03-02T07:32:59;15.00;69.20
51719;DHT22;37795;53.236;5.704;2024-03-02T07:35:26;15.00;69.20
51719;DHT22;37795;53.236;5.704;2024-03-02T07:37:57;15.00;69.10
51719;DHT22;37795;53.236;5.704;2024-03-02T07:40:23;15.00;69.00
51719;DHT22;37795;53.236;5.704;2024-03-02T07:42:49;15.00;69.00
51719;DHT22;37795;53.236;5.704;2024-03-02T07:45:15;15.00;69.00
51719;DHT22;37795;53.236;5.704;2024-03-02T07:47:41;15.00;69.00
51719;DHT22;37795;53.236;5.704;2024-03-02T07:50:07;15.00;68.90
51719;DHT22;37795;53.236;5.704;2024-03-02T07:52:33;15.00;68.90
51719;DHT22;37795;53.236;5.704;2024-03-02T07:54:59;14.90;68.90
51719;DHT22;37795;53.236;5.704;2024-03-02T07:57:25;15.00;68.90
51719;DHT22;37795;53.236;5.704;2024-03-02T07:59:51;14.90;68.90
51719;DHT22;37795;53.236;5.704;2024-03-02T08:02:17;14.90;68.90
51719;DHT22;37795;53.236;5.704;2024-03-02T08:04:43;14.90;69.00
51719;DHT22;37795;53.236;5.704;2024-03-02T08:07:09;14.90;69.00
51719;DHT22;37795;53.236;5.704;2024-03-02T08:09:35;14.90;69.00
51719;DHT22;37795;53.236;5.704;2024-03-02T08:12:00;14.90;69.10
51719;DHT22;37795;53.236;5.704;2024-03-02T08:14:26;14.90;69.10
51719;DHT22;37795;53.236;5.704;2024-03-02T08:16:52;14.90;69.20
51719;DHT22;37795;53.236;5.704;2024-03-02T08:19:17;14.90;69.20
51719;DHT22;37795;53.236;5.704;2024-03-02T08:21:44;14.90;69.20
51719;DHT22;37795;53.236;5.704;2024-03-02T08:24:09;14.90;69.20
51719;DHT22;37795;53.236;5.704;2024-03-02T08:26:35;14.90;69.20
51719;DHT22;37795;53.236;5.704;2024-03-02T08:29:01;14.90;69.20
51719;DHT22;37795;53.236;5.704;2024-03-02T08:31:29;14.90;69.30
51719;DHT22;37795;53.236;5.704;2024-03-02T08:33:55;14.90;69.30
51719;DHT22;37795;53.236;5.704;2024-03-02T08:36:22;14.80;69.30
51719;DHT22;37795;53.236;5.704;2024-03-02T08:38:49;14.80;69.30
51719;DHT22;37795;53.236;5.704;2024-03-02T08:41:15;14.80;69.40
51719;DHT22;37795;53.236;5.704;2024-03-02T08:43:42;14.80;69.40
51719;DHT22;37795;53.236;5.704;2024-03-02T08:46:08;14.80;69.40
51719;DHT22;37795;53.236;5.704;2024-03-02T08:48:34;14.80;69.40
51719;DHT22;37795;53.236;5.704;2024-03-02T08:51:00;14.80;69.40
51719;DHT22;37795;53.236;5.704;2024-03-02T08:53:26;14.90;69.40
51719;DHT22;37795;53.236;5.704;2024-03-02T08:55:52;14.80;69.40
51719;DHT22;37795;53.236;5.704;2024-03-02T08:58:17;14.90;69.40
51719;DHT22;37795;53.236;5.704;2024-03-02T09:00:43;14.90;69.40
51719;DHT22;37795;53.236;5.704;2024-03-02T09:03:09;14.90;69.40
51719;DHT22;37795;53.236;5.704;2024-03-02T09:05:35;14.90;69.30
51719;DHT22;37795;53.236;5.704;2024-03-02T09:08:01;14.90;69.30
51719;DHT22;37795;53.236;5.704;2024-03-02T09:10:29;14.90;69.20
51719;DHT22;37795;53.236;5.704;2024-03-02T09:12:57;14.90;69.20
51719;DHT22;37795;53.236;5.704;2024-03-02T09:15:23;14.90;69.10
51719;DHT22;37795;53.236;5.704;2024-03-02T09:17:49;14.90;69.10
51719;DHT22;37795;53.236;5.704;2024-03-02T09:20:15;14.90;69.10
51719;DHT22;37795;53.236;5.704;2024-03-02T09:22:42;14.90;69.10
51719;DHT22;37795;53.236;5.704;2024-03-02T09:25:07;15.00;69.10
51719;DHT22;37795;53.236;5.704;2024-03-02T09:27:37;15.00;69.10
51719;DHT22;37795;53.236;5.704;2024-03-02T09:30:07;15.00;69.00
51719;DHT22;37795;53.236;5.704;2024-03-02T09:32:33;15.00;69.00
51719;DHT22;37795;53.236;5.704;2024-03-02T09:34:59;15.00;69.00
51719;DHT22;37795;53.236;5.704;2024-03-02T09:37:24;15.00;68.90
51719;DHT22;37795;53.236;5.704;2024-03-02T09:39:50;15.10;68.90
51719;DHT22;37795;53.236;5.704;2024-03-02T09:42:17;14.90;68.50
51719;DHT22;37795;53.236;5.704;2024-03-02T09:44:43;14.80;68.80
51719;DHT22;37795;53.236;5.704;2024-03-02T09:47:08;14.70;69.10
51719;DHT22;37795;53.236;5.704;2024-03-02T09:49:34;14.70;69.30
51719;DHT22;37795;53.236;5.704;2024-03-02T09:52:00;14.60;69.40
51719;DHT22;37795;53.236;5.704;2024-03-02T09:54:26;14.60;69.60
51719;DHT22;37795;53.236;5.704;2024-03-02T09:56:51;14.60;69.70
51719;DHT22;37795;53.236;5.704;2024-03-02T09:59:17;14.60;69.80
51719;DHT22;37795;53.236;5.704;2024-03-02T10:04:27;14.60;70.00
51719;DHT22;37795;53.236;5.704;2024-03-02T10:09:40;14.60;70.10
51719;DHT22;37795;53.236;5.704;2024-03-02T10:12:06;14.60;70.20
51719;DHT22;37795;53.236;5.704;2024-03-02T10:14:32;14.60;70.20
51719;DHT22;37795;53.236;5.704;2024-03-02T10:17:04;14.60;70.20
51719;DHT22;37795;53.236;5.704;2024-03-02T10:19:30;14.60;70.20
51719;DHT22;37795;53.236;5.704;2024-03-02T10:22:04;14.60;70.20
51719;DHT22;37795;53.236;5.704;2024-03-02T10:24:38;14.60;70.20
51719;DHT22;37795;53.236;5.704;2024-03-02T10:27:10;14.70;70.20
51719;DHT22;37795;53.236;5.704;2024-03-02T10:29:40;14.60;70.20
51719;DHT22;37795;53.236;5.704;2024-03-02T10:32:08;14.70;70.20
51719;DHT22;37795;53.236;5.704;2024-03-02T10:34:33;14.70;70.20
51719;DHT22;37795;53.236;5.704;2024-03-02T10:37:00;14.60;70.20
51719;DHT22;37795;53.236;5.704;2024-03-02T10:39:26;14.70;70.20
51719;DHT22;37795;53.236;5.704;2024-03-02T10:41:53;14.70;70.10
51719;DHT22;37795;53.236;5.704;2024-03-02T10:51:18;14.70;70.10
51719;DHT22;37795;53.236;5.704;2024-03-02T10:53:43;14.80;70.20
51719;DHT22;37795;53.236;5.704;2024-03-02T10:56:16;14.90;70.00
51719;DHT22;37795;53.236;5.704;2024-03-02T10:58:51;14.90;69.90
51719;DHT22;37795;53.236;5.704;2024-03-02T11:01:20;15.00;69.80
51719;DHT22;37795;53.236;5.704;2024-03-02T11:03:46;15.10;69.50
51719;DHT22;37795;53.236;5.704;2024-03-02T11:06:13;15.10;69.40
51719;DHT22;37795;53.236;5.704;2024-03-02T11:08:40;15.20;69.20
51719;DHT22;37795;53.236;5.704;2024-03-02T11:11:07;15.20;69.10
51719;DHT22;37795;53.236;5.704;2024-03-02T11:13:36;15.30;68.90
51719;DHT22;37795;53.236;5.704;2024-03-02T11:16:12;15.30;68.80
51719;DHT22;37795;53.236;5.704;2024-03-02T11:18:39;15.40;68.70
51719;DHT22;37795;53.236;5.704;2024-03-02T11:21:05;15.40;68.50
51719;DHT22;37795;53.236;5.704;2024-03-02T11:23:33;15.40;68.40
51719;DHT22;37795;53.236;5.704;2024-03-02T11:26:21;15.50;68.30
51719;DHT22;37795;53.236;5.704;2024-03-02T11:28:47;15.50;68.20
51719;DHT22;37795;53.236;5.704;2024-03-02T11:31:13;15.50;68.10
51719;DHT22;37795;53.236;5.704;2024-03-02T11:33:39;15.50;68.10
51719;DHT22;37795;53.236;5.704;2024-03-02T11:36:08;15.60;68.00
51719;DHT22;37795;53.236;5.704;2024-03-02T11:38:34;15.60;68.00
51719;DHT22;37795;53.236;5.704;2024-03-02T11:41:06;15.60;67.90
51719;DHT22;37795;53.236;5.704;2024-03-02T11:43:38;15.60;67.90
51719;DHT22;37795;53.236;5.704;2024-03-02T11:46:07;15.70;67.90
51719;DHT22;37795;53.236;5.704;2024-03-02T11:48:33;15.70;67.80
51719;DHT22;37795;53.236;5.704;2024-03-02T11:51:00;15.70;67.80
51719;DHT22;37795;53.236;5.704;2024-03-02T11:53:27;15.70;67.80
51719;DHT22;37795;53.236;5.704;2024-03-02T11:56:00;15.70;67.70
51719;DHT22;37795;53.236;5.704;2024-03-02T11:58:27;15.70;67.70
51719;DHT22;37795;53.236;5.704;2024-03-02T12:00:54;15.70;67.70
51719;DHT22;37795;53.236;5.704;2024-03-02T12:03:22;15.70;67.60
51719;DHT22;37795;53.236;5.704;2024-03-02T12:05:50;15.70;67.50
51719;DHT22;37795;53.236;5.704;2024-03-02T12:08:16;15.80;67.40
51719;DHT22;37795;53.236;5.704;2024-03-02T12:10:42;15.80;67.50
51719;DHT22;37795;53.236;5.704;2024-03-02T12:13:10;15.80;67.60
51719;DHT22;37795;53.236;5.704;2024-03-02T12:15:37;15.80;67.60
51719;DHT22;37795;53.236;5.704;2024-03-02T12:18:04;15.80;67.60
51719;DHT22;37795;53.236;5.704;2024-03-02T12:20:31;15.80;67.70
51719;DHT22;37795;53.236;5.704;2024-03-02T12:23:01;15.80;67.70
51719;DHT22;37795;53.236;5.704;2024-03-02T12:25:27;15.80;67.70
51719;DHT22;37795;53.236;5.704;2024-03-02T12:27:55;15.80;67.70
51719;DHT22;37795;53.236;5.704;2024-03-02T12:30:22;15.80;67.70
51719;DHT22;37795;53.236;5.704;2024-03-02T12:32:48;15.80;67.80
51719;DHT22;37795;53.236;5.704;2024-03-02T12:35:15;15.80;67.80
51719;DHT22;37795;53.236;5.704;2024-03-02T12:37:45;15.80;67.90
51719;DHT22;37795;53.236;5.704;2024-03-02T12:40:12;15.80;67.90
51719;DHT22;37795;53.236;5.704;2024-03-02T12:42:38;15.80;67.90
51719;DHT22;37795;53.236;5.704;2024-03-02T12:45:06;15.80;68.00
51719;DHT22;37795;53.236;5.704;2024-03-02T12:47:32;15.80;68.00
51719;DHT22;37795;53.236;5.704;2024-03-02T12:49:59;15.80;68.00
51719;DHT22;37795;53.236;5.704;2024-03-02T12:52:25;15.80;68.10
51719;DHT22;37795;53.236;5.704;2024-03-02T12:54:51;15.80;68.10
51719;DHT22;37795;53.236;5.704;2024-03-02T12:57:18;15.80;68.10
51719;DHT22;37795;53.236;5.704;2024-03-02T12:59:47;15.80;68.20
51719;DHT22;37795;53.236;5.704;2024-03-02T13:02:19;15.80;68.20
51719;DHT22;37795;53.236;5.704;2024-03-02T13:04:52;15.80;68.20
51719;DHT22;37795;53.236;5.704;2024-03-02T13:07:23;15.90;68.30
51719;DHT22;37795;53.236;5.704;2024-03-02T13:09:52;15.90;68.30
51719;DHT22;37795;53.236;5.704;2024-03-02T13:12:19;15.90;68.30
51719;DHT22;37795;53.236;5.704;2024-03-02T13:14:48;15.90;68.30
51719;DHT22;37795;53.236;5.704;2024-03-02T13:17:15;15.90;68.40
51719;DHT22;37795;53.236;5.704;2024-03-02T13:19:57;15.90;68.40
51719;DHT22;37795;53.236;5.704;2024-03-02T13:22:24;15.90;68.40
51719;DHT22;37795;53.236;5.704;2024-03-02T13:24:51;16.00;68.40
51719;DHT22;37795;53.236;5.704;2024-03-02T13:27:17;15.90;68.40
51719;DHT22;37795;53.236;5.704;2024-03-02T13:29:46;16.00;68.40
51719;DHT22;37795;53.236;5.704;2024-03-02T13:32:13;16.00;68.40
51719;DHT22;37795;53.236;5.704;2024-03-02T13:34:40;16.00;68.50
51719;DHT22;37795;53.236;5.704;2024-03-02T13:37:05;16.00;68.50
51719;DHT22;37795;53.236;5.704;2024-03-02T13:39:31;16.10;68.50
51719;DHT22;37795;53.236;5.704;2024-03-02T13:41:58;16.10;68.50
51719;DHT22;37795;53.236;5.704;2024-03-02T13:44:30;16.10;68.50
51719;DHT22;37795;53.236;5.704;2024-03-02T13:46:56;16.10;68.50
51719;DHT22;37795;53.236;5.704;2024-03-02T13:49:22;16.10;68.50
51719;DHT22;37795;53.236;5.704;2024-03-02T13:51:48;16.10;68.50
51719;DHT22;37795;53.236;5.704;2024-03-02T13:54:14;16.10;68.50
51719;DHT22;37795;53.236;5.704;2024-03-02T13:56:41;16.10;68.60
51719;DHT22;37795;53.236;5.704;2024-03-02T13:59:07;16.20;68.60
51719;DHT22;37795;53.236;5.704;2024-03-02T14:01:33;16.20;68.60
51719;DHT22;37795;53.236;5.704;2024-03-02T14:03:59;16.20;68.60
51719;DHT22;37795;53.236;5.704;2024-03-02T14:06:25;16.20;68.70
51719;DHT22;37795;53.236;5.704;2024-03-02T14:08:53;16.30;68.70
51719;DHT22;37795;53.236;5.704;2024-03-02T14:11:19;16.30;68.70
51719;DHT22;37795;53.236;5.704;2024-03-02T14:13:45;16.30;68.70
51719;DHT22;37795;53.236;5.704;2024-03-02T14:16:19;16.40;68.70
51719;DHT22;37795;53.236;5.704;2024-03-02T14:18:45;16.40;68.70
51719;DHT22;37795;53.236;5.704;2024-03-02T14:21:11;16.40;68.70
51719;DHT22;37795;53.236;5.704;2024-03-02T14:23:37;16.50;68.70
51719;DHT22;37795;53.236;5.704;2024-03-02T14:26:03;16.50;68.70
51719;DHT22;37795;53.236;5.704;2024-03-02T14:28:29;16.50;68.70
51719;DHT22;37795;53.236;5.704;2024-03-02T14:30:54;16.60;68.70
51719;DHT22;37795;53.236;5.704;2024-03-02T14:33:20;16.60;68.80
51719;DHT22;37795;53.236;5.704;2024-03-02T14:35:46;16.70;68.70
51719;DHT22;37795;53.236;5.704;2024-03-02T14:38:12;16.70;68.70
51719;DHT22;37795;53.236;5.704;2024-03-02T14:40:38;16.70;68.80
51719;DHT22;37795;53.236;5.704;2024-03-02T14:43:04;16.80;68.80
51719;DHT22;37795;53.236;5.704;2024-03-02T14:45:30;16.80;68.80
51719;DHT22;37795;53.236;5.704;2024-03-02T14:47:56;16.80;68.80
51719;DHT22;37795;53.236;5.704;2024-03-02T14:50:25;16.90;68.80
51719;DHT22;37795;53.236;5.704;2024-03-02T14:52:51;16.90;68.80
51719;DHT22;37795;53.236;5.704;2024-03-02T14:55:17;16.90;68.80
51719;DHT22;37795;53.236;5.704;2024-03-02T14:57:43;17.00;68.80
51719;DHT22;37795;53.236;5.704;2024-03-02T15:00:09;17.00;68.80
51719;DHT22;37795;53.236;5.704;2024-03-02T15:02:37;17.00;68.80
51719;DHT22;37795;53.236;5.704;2024-03-02T15:05:03;17.10;68.80
51719;DHT22;37795;53.236;5.704;2024-03-02T15:07:31;17.10;68.80
51719;DHT22;37795;53.236;5.704;2024-03-02T15:09:57;17.10;68.80
51719;DHT22;37795;53.236;5.704;2024-03-02T15:12:22;17.10;68.80
51719;DHT22;37795;53.236;5.704;2024-03-02T15:14:48;17.20;68.80
51719;DHT22;37795;53.236;5.704;2024-03-02T15:17:14;17.20;68.70
51719;DHT22;37795;53.236;5.704;2024-03-02T15:19:44;17.20;68.70
51719;DHT22;37795;53.236;5.704;2024-03-02T15:22:10;17.20;68.70
51719;DHT22;37795;53.236;5.704;2024-03-02T15:24:37;17.20;68.60
51719;DHT22;37795;53.236;5.704;2024-03-02T15:27:03;17.20;68.60
51719;DHT22;37795;53.236;5.704;2024-03-02T15:29:34;17.20;68.60
51719;DHT22;37795;53.236;5.704;2024-03-02T15:32:00;17.20;68.60
51719;DHT22;37795;53.236;5.704;2024-03-02T15:34:26;17.20;68.60
51719;DHT22;37795;53.236;5.704;2024-03-02T15:36:52;17.20;68.60
51719;DHT22;37795;53.236;5.704;2024-03-02T15:39:18;17.20;68.50
51719;DHT22;37795;53.236;5.704;2024-03-02T15:41:46;17.10;68.50
51719;DHT22;37795;53.236;5.704;2024-03-02T15:44:12;17.10;68.50
51719;DHT22;37795;53.236;5.704;2024-03-02T15:46:38;17.10;68.50
51719;DHT22;37795;53.236;5.704;2024-03-02T15:49:04;17.10;68.50
51719;DHT22;37795;53.236;5.704;2024-03-02T15:51:32;17.10;68.50